createdAt,value
2023-02-04T00:00:50.225Z,5.18
2023-02-04T00:01:50.256Z,5.17
2023-02-04T00:02:50.303Z,5.18
2023-02-04T00:03:50.266Z,5.18
2023-02-04T00:04:50.281Z,5.18
2023-02-04T00:05:50.379Z,5.18
2023-02-04T00:06:50.342Z,5.18
2023-02-04T00:07:50.342Z,5.17
2023-02-04T00:08:50.348Z,5.17
2023-02-04T00:09:50.378Z,5.18
2023-02-04T00:10:50.385Z,5.17
2023-02-04T00:11:50.430Z,5.17
2023-02-04T00:12:50.421Z,5.17
2023-02-04T00:13:50.450Z,5.17
2023-02-04T00:14:50.464Z,5.18
2023-02-04T00:15:50.533Z,5.18
2023-02-04T00:16:50.509Z,5.17
2023-02-04T00:17:50.508Z,5.17
2023-02-04T00:18:50.525Z,5.17
2023-02-04T00:19:50.542Z,5.17
2023-02-04T00:20:50.557Z,5.17
2023-02-04T00:21:50.609Z,5.15
2023-02-04T00:22:50.595Z,5.15
2023-02-04T00:23:50.621Z,5.15
2023-02-04T00:24:50.756Z,5.15
2023-02-04T00:25:50.640Z,5.17
2023-02-04T00:26:50.670Z,5.18
2023-02-04T00:27:50.704Z,5.20
2023-02-04T00:28:50.682Z,5.20
2023-02-04T00:29:50.714Z,5.23
2023-02-04T00:30:50.702Z,5.23
2023-02-04T00:31:50.881Z,5.25
2023-02-04T00:32:50.732Z,5.23
2023-02-04T00:33:50.759Z,5.25
2023-02-04T00:34:50.770Z,5.25
2023-02-04T00:35:50.800Z,5.28
2023-02-04T00:36:50.831Z,5.28
2023-02-04T00:37:50.843Z,5.30
2023-02-04T00:38:50.852Z,5.29
2023-02-04T00:39:50.884Z,5.32
2023-02-04T00:40:50.883Z,5.32
2023-02-04T00:41:50.931Z,5.33
2023-02-04T00:42:50.925Z,5.33
2023-02-04T00:43:50.953Z,5.35
2023-02-04T00:44:50.961Z,5.33
2023-02-04T00:45:51.040Z,5.35
2023-02-04T00:46:51.007Z,5.36
2023-02-04T00:47:51.007Z,5.35
2023-02-04T00:48:51.024Z,5.35
2023-02-04T00:49:51.034Z,5.36
2023-02-04T00:50:51.046Z,5.36
2023-02-04T00:51:51.083Z,5.38
2023-02-04T00:52:51.074Z,5.41
2023-02-04T00:53:51.105Z,5.41
2023-02-04T00:54:51.118Z,5.41
2023-02-04T00:55:51.133Z,5.41
2023-02-04T00:56:51.166Z,5.43
2023-02-04T00:57:51.177Z,5.43
2023-02-04T00:58:51.187Z,5.46
2023-02-04T00:59:51.217Z,5.47
2023-02-04T01:00:51.324Z,5.47
2023-02-04T01:01:51.274Z,5.50
2023-02-04T01:02:51.379Z,5.48
2023-02-04T01:03:51.289Z,5.50
2023-02-04T01:04:51.304Z,5.50
2023-02-04T01:05:51.333Z,5.51
2023-02-04T01:06:51.358Z,5.51
2023-02-04T01:07:51.368Z,5.50
2023-02-04T01:08:51.379Z,5.50
2023-02-04T01:09:51.401Z,5.53
2023-02-04T01:10:51.416Z,5.53
2023-02-04T01:11:51.459Z,5.53
2023-02-04T01:12:51.450Z,5.56
2023-02-04T01:13:51.463Z,5.56
2023-02-04T01:14:51.475Z,5.57
2023-02-04T01:15:51.490Z,5.56
2023-02-04T01:16:51.520Z,5.56
2023-02-04T01:17:51.530Z,5.56
2023-02-04T01:18:51.546Z,5.56
2023-02-04T01:19:51.558Z,5.54
2023-02-04T01:20:51.572Z,5.54
2023-02-04T01:21:51.607Z,5.54
2023-02-04T01:22:51.609Z,5.54
2023-02-04T01:23:51.622Z,5.53
2023-02-04T01:24:51.622Z,5.53
2023-02-04T01:25:51.650Z,5.51
2023-02-04T01:26:51.680Z,5.53
2023-02-04T01:27:51.754Z,5.53
2023-02-04T01:28:51.706Z,5.53
2023-02-04T01:29:51.721Z,5.53
2023-02-04T01:30:51.792Z,5.53
2023-02-04T01:31:51.862Z,5.51
2023-02-04T01:32:51.767Z,5.51
2023-02-04T01:33:51.792Z,5.53
2023-02-04T01:34:51.804Z,5.53
2023-02-04T01:35:51.824Z,5.53
2023-02-04T01:36:51.849Z,5.53
2023-02-04T01:37:51.852Z,5.53
2023-02-04T01:38:51.864Z,5.54
2023-02-04T01:39:51.892Z,5.54
2023-02-04T01:40:51.895Z,5.56
2023-02-04T01:41:51.940Z,5.56
2023-02-04T01:42:51.932Z,5.53
2023-02-04T01:43:51.956Z,5.54
2023-02-04T01:44:51.975Z,5.54
2023-02-04T01:45:52.066Z,5.51
2023-02-04T01:46:52.015Z,5.53
2023-02-04T01:47:52.030Z,5.53
2023-02-04T01:48:52.043Z,5.53
2023-02-04T01:49:52.076Z,5.51
2023-02-04T01:50:52.085Z,5.51
2023-02-04T01:51:52.103Z,5.51
2023-02-04T01:52:52.116Z,5.51
2023-02-04T01:53:52.135Z,5.53
2023-02-04T01:54:52.154Z,5.53
2023-02-04T01:55:52.191Z,5.54
2023-02-04T01:56:52.199Z,5.54
2023-02-04T01:57:52.227Z,5.54
2023-02-04T01:58:52.231Z,5.53
2023-02-04T01:59:52.253Z,5.51
2023-02-04T02:00:52.311Z,5.51
2023-02-04T02:01:52.294Z,5.51
2023-02-04T02:02:52.302Z,5.50
2023-02-04T02:03:52.324Z,5.51
2023-02-04T02:04:52.337Z,5.51
2023-02-04T02:05:52.371Z,5.50
2023-02-04T02:06:52.385Z,5.50
2023-02-04T02:07:52.393Z,5.50
2023-02-04T02:08:52.401Z,5.50
2023-02-04T02:09:52.427Z,5.53
2023-02-04T02:10:52.442Z,5.51
2023-02-04T02:11:52.473Z,5.50
2023-02-04T02:12:52.483Z,5.50
2023-02-04T02:13:52.507Z,5.48
2023-02-04T02:14:52.516Z,5.48
2023-02-04T02:15:52.543Z,5.47
2023-02-04T02:16:52.650Z,5.48
2023-02-04T02:17:52.579Z,5.47
2023-02-04T02:18:52.585Z,5.50
2023-02-04T02:19:52.612Z,5.48
2023-02-04T02:20:52.629Z,5.47
2023-02-04T02:21:52.648Z,5.48
2023-02-04T02:22:52.652Z,5.48
2023-02-04T02:23:52.680Z,5.48
2023-02-04T02:24:52.692Z,5.47
2023-02-04T02:25:52.716Z,5.47
2023-02-04T02:26:52.747Z,5.47
2023-02-04T02:27:52.796Z,5.47
2023-02-04T02:28:52.751Z,5.47
2023-02-04T02:29:52.774Z,5.46
2023-02-04T02:30:52.909Z,5.48
2023-02-04T02:31:52.834Z,5.47
2023-02-04T02:32:52.840Z,5.47
2023-02-04T02:33:52.840Z,5.46
2023-02-04T02:34:52.863Z,5.46
2023-02-04T02:35:52.858Z,5.46
2023-02-04T02:36:52.894Z,5.46
2023-02-04T02:37:52.894Z,5.44
2023-02-04T02:38:52.907Z,5.43
2023-02-04T02:39:52.923Z,5.46
2023-02-04T02:40:52.939Z,5.44
2023-02-04T02:41:52.973Z,5.44
2023-02-04T02:42:52.972Z,5.44
2023-02-04T02:43:52.992Z,5.44
2023-02-04T02:44:52.996Z,5.43
2023-02-04T02:45:53.093Z,5.44
2023-02-04T02:46:53.050Z,5.41
2023-02-04T02:47:53.053Z,5.41
2023-02-04T02:48:53.054Z,5.43
2023-02-04T02:49:53.068Z,5.39
2023-02-04T02:50:53.083Z,5.38
2023-02-04T02:51:53.123Z,5.36
2023-02-04T02:52:54.346Z,5.36
2023-02-04T02:53:53.141Z,5.33
2023-02-04T02:54:53.154Z,5.33
2023-02-04T02:55:53.170Z,5.30
2023-02-04T02:56:53.208Z,5.28
2023-02-04T02:57:53.204Z,5.29
2023-02-04T02:58:53.220Z,5.28
2023-02-04T02:59:53.249Z,5.28
2023-02-04T03:00:53.339Z,5.28
2023-02-04T03:01:53.300Z,5.26
2023-02-04T03:02:53.308Z,5.23
2023-02-04T03:03:53.312Z,5.21
2023-02-04T03:04:53.327Z,5.18
2023-02-04T03:05:53.360Z,5.18
2023-02-04T03:06:53.383Z,5.17
2023-02-04T03:07:53.387Z,5.18
2023-02-04T03:08:53.395Z,5.17
2023-02-04T03:09:53.410Z,5.15
2023-02-04T03:10:53.425Z,5.14
2023-02-04T03:11:53.441Z,5.12
2023-02-04T03:12:53.453Z,5.12
2023-02-04T03:13:53.475Z,5.10
2023-02-04T03:14:53.494Z,5.04
2023-02-04T03:15:53.550Z,4.99
2023-02-04T03:16:53.527Z,4.97
2023-02-04T03:17:53.547Z,4.96
2023-02-04T03:18:53.561Z,4.94
2023-02-04T03:19:53.579Z,4.92
2023-02-04T03:20:53.596Z,4.89
2023-02-04T03:21:53.615Z,4.87
2023-02-04T03:22:53.641Z,4.86
2023-02-04T03:23:53.650Z,4.86
2023-02-04T03:24:53.658Z,4.84
2023-02-04T03:25:53.672Z,4.84
2023-02-04T03:26:53.694Z,4.84
2023-02-04T03:27:53.751Z,4.82
2023-02-04T03:28:53.719Z,4.78
2023-02-04T03:29:53.746Z,4.75
2023-02-04T03:30:53.992Z,4.73
2023-02-04T03:31:53.880Z,4.71
2023-02-04T03:32:53.809Z,4.70
2023-02-04T03:33:53.817Z,4.67
2023-02-04T03:34:53.830Z,4.66
2023-02-04T03:35:53.860Z,4.66
2023-02-04T03:36:53.880Z,4.62
2023-02-04T03:37:53.884Z,4.59
2023-02-04T03:38:53.892Z,4.59
2023-02-04T03:39:53.923Z,4.60
2023-02-04T03:40:53.951Z,4.59
2023-02-04T03:41:53.954Z,4.59
2023-02-04T03:42:53.965Z,4.62
2023-02-04T03:43:53.980Z,4.63
2023-02-04T03:44:53.993Z,4.62
2023-02-04T03:45:54.075Z,4.62
2023-02-04T03:46:54.036Z,4.62
2023-02-04T03:47:54.058Z,4.59
2023-02-04T03:48:54.087Z,4.58
2023-02-04T03:49:54.092Z,4.53
2023-02-04T03:50:54.108Z,4.50
2023-02-04T03:51:54.124Z,4.50
2023-02-04T03:52:54.143Z,4.50
2023-02-04T03:53:54.167Z,4.48
2023-02-04T03:54:54.182Z,4.50
2023-02-04T03:55:54.201Z,4.49
2023-02-04T03:56:54.230Z,4.45
2023-02-04T03:57:54.240Z,4.44
2023-02-04T03:58:54.264Z,4.42
2023-02-04T03:59:54.278Z,4.42
2023-02-04T04:00:54.306Z,4.41
2023-02-04T04:01:54.417Z,4.38
2023-02-04T04:02:54.379Z,4.37
2023-02-04T04:03:54.355Z,4.37
2023-02-04T04:04:54.372Z,4.35
2023-02-04T04:05:54.387Z,4.34
2023-02-04T04:06:54.422Z,4.32
2023-02-04T04:07:54.416Z,4.34
2023-02-04T04:08:54.443Z,4.31
2023-02-04T04:09:54.461Z,4.28
2023-02-04T04:10:54.479Z,4.26
2023-02-04T04:11:54.516Z,4.23
2023-02-04T04:12:54.520Z,4.20
2023-02-04T04:13:54.531Z,4.16
2023-02-04T04:14:54.544Z,4.14
2023-02-04T04:15:54.593Z,4.12
2023-02-04T04:16:54.607Z,4.12
2023-02-04T04:17:54.602Z,4.12
2023-02-04T04:18:54.627Z,4.08
2023-02-04T04:19:54.640Z,4.06
2023-02-04T04:20:54.671Z,4.05
2023-02-04T04:21:54.709Z,4.02
2023-02-04T04:22:54.704Z,3.99
2023-02-04T04:23:54.718Z,3.98
2023-02-04T04:24:54.743Z,3.98
2023-02-04T04:25:54.761Z,3.96
2023-02-04T04:26:54.799Z,3.95
2023-02-04T04:27:54.877Z,3.95
2023-02-04T04:28:54.813Z,3.95
2023-02-04T04:29:54.827Z,3.94
2023-02-04T04:30:54.900Z,3.94
2023-02-04T04:31:55.094Z,3.94
2023-02-04T04:32:54.887Z,3.95
2023-02-04T04:33:54.913Z,3.94
2023-02-04T04:34:54.926Z,3.92
2023-02-04T04:35:54.936Z,3.91
2023-02-04T04:36:54.968Z,3.88
2023-02-04T04:37:54.960Z,3.87
2023-02-04T04:38:54.987Z,3.81
2023-02-04T04:39:54.996Z,3.81
2023-02-04T04:40:55.022Z,3.80
2023-02-04T04:41:55.057Z,3.78
2023-02-04T04:42:55.057Z,3.78
2023-02-04T04:43:55.064Z,3.76
2023-02-04T04:44:55.081Z,3.70
2023-02-04T04:45:55.097Z,3.69
2023-02-04T04:46:55.286Z,3.69
2023-02-04T04:47:55.128Z,3.68
2023-02-04T04:48:55.164Z,3.65
2023-02-04T04:49:55.170Z,3.62
2023-02-04T04:50:55.188Z,3.60
2023-02-04T04:51:55.211Z,3.56
2023-02-04T04:52:55.214Z,3.53
2023-02-04T04:53:55.225Z,3.50
2023-02-04T04:54:55.241Z,3.47
2023-02-04T04:55:55.252Z,3.48
2023-02-04T04:56:55.304Z,3.48
2023-02-04T04:57:55.292Z,3.45
2023-02-04T04:58:55.306Z,3.45
2023-02-04T04:59:55.317Z,3.45
2023-02-04T05:00:55.427Z,3.47
2023-02-04T05:01:55.383Z,3.48
2023-02-04T05:02:55.378Z,3.48
2023-02-04T05:03:55.391Z,3.48
2023-02-04T05:04:55.522Z,3.48
2023-02-04T05:05:55.435Z,3.47
2023-02-04T05:06:55.470Z,3.47
2023-02-04T05:07:55.463Z,3.44
2023-02-04T05:08:55.490Z,3.42
2023-02-04T05:09:55.499Z,3.40
2023-02-04T05:10:55.515Z,3.36
2023-02-04T05:11:55.552Z,3.36
2023-02-04T05:12:55.554Z,3.36
2023-02-04T05:13:55.572Z,3.32
2023-02-04T05:14:55.595Z,3.32
2023-02-04T05:15:55.692Z,3.29
2023-02-04T05:16:55.657Z,3.28
2023-02-04T05:17:55.640Z,3.25
2023-02-04T05:18:55.666Z,3.21
2023-02-04T05:19:55.658Z,3.18
2023-02-04T05:20:55.672Z,3.14
2023-02-04T05:21:55.712Z,3.13
2023-02-04T05:22:55.718Z,3.08
2023-02-04T05:23:55.720Z,3.05
2023-02-04T05:24:55.774Z,3.04
2023-02-04T05:25:55.761Z,3.01
2023-02-04T05:26:55.811Z,3.00
2023-02-04T05:27:55.851Z,2.97
2023-02-04T05:28:55.828Z,3.00
2023-02-04T05:29:55.881Z,3.00
2023-02-04T05:30:55.891Z,3.03
2023-02-04T05:31:55.965Z,3.05
2023-02-04T05:32:55.907Z,3.07
2023-02-04T05:33:55.927Z,3.07
2023-02-04T05:34:55.942Z,3.03
2023-02-04T05:35:55.960Z,3.04
2023-02-04T05:36:55.999Z,3.05
2023-02-04T05:37:55.993Z,3.05
2023-02-04T05:38:56.009Z,3.05
2023-02-04T05:39:56.027Z,3.04
2023-02-04T05:40:56.054Z,3.01
2023-02-04T05:41:56.079Z,3.03
2023-02-04T05:42:56.079Z,3.00
2023-02-04T05:43:56.093Z,3.01
2023-02-04T05:44:56.108Z,2.97
2023-02-04T05:45:56.127Z,2.95
2023-02-04T05:46:56.205Z,2.93
2023-02-04T05:47:56.154Z,2.97
2023-02-04T05:48:56.180Z,2.93
2023-02-04T05:49:56.184Z,2.89
2023-02-04T05:50:56.204Z,2.87
2023-02-04T05:51:56.235Z,2.87
2023-02-04T05:52:56.235Z,2.85
2023-02-04T05:53:56.248Z,2.86
2023-02-04T05:54:56.267Z,2.83
2023-02-04T05:55:56.284Z,2.82
2023-02-04T05:56:56.331Z,2.77
2023-02-04T05:57:56.315Z,2.75
2023-02-04T05:58:56.348Z,2.75
2023-02-04T05:59:56.356Z,2.72
2023-02-04T06:00:56.385Z,2.71
2023-02-04T06:01:56.412Z,2.72
2023-02-04T06:02:56.433Z,2.71
2023-02-04T06:03:56.450Z,2.69
2023-02-04T06:04:56.450Z,2.68
2023-02-04T06:05:56.466Z,2.67
2023-02-04T06:06:56.512Z,2.65
2023-02-04T06:07:56.509Z,2.62
2023-02-04T06:08:56.526Z,2.62
2023-02-04T06:09:56.538Z,2.62
2023-02-04T06:10:56.563Z,2.64
2023-02-04T06:11:56.594Z,2.62
2023-02-04T06:12:56.592Z,2.62
2023-02-04T06:13:56.606Z,2.64
2023-02-04T06:14:56.633Z,2.64
2023-02-04T06:15:56.639Z,2.65
2023-02-04T06:16:56.721Z,2.67
2023-02-04T06:17:56.678Z,2.67
2023-02-04T06:18:56.692Z,2.67
2023-02-04T06:19:56.706Z,2.64
2023-02-04T06:20:56.750Z,2.60
2023-02-04T06:21:56.779Z,2.50
2023-02-04T06:22:56.766Z,2.44
2023-02-04T06:23:56.789Z,2.39
2023-02-04T06:24:56.780Z,2.35
2023-02-04T06:25:56.808Z,2.35
2023-02-04T06:26:56.855Z,2.31
2023-02-04T06:27:56.901Z,2.28
2023-02-04T06:28:56.859Z,2.25
2023-02-04T06:29:56.874Z,2.25
2023-02-04T06:30:57.042Z,2.26
2023-02-04T06:31:57.053Z,2.26
2023-02-04T06:32:56.920Z,2.28
2023-02-04T06:33:56.935Z,2.31
2023-02-04T06:34:56.961Z,2.31
2023-02-04T06:35:56.972Z,2.31
2023-02-04T06:36:57.039Z,2.31
2023-02-04T06:37:57.004Z,2.32
2023-02-04T06:38:57.026Z,2.32
2023-02-04T06:39:57.046Z,2.35
2023-02-04T06:40:57.063Z,2.38
2023-02-04T06:41:57.100Z,2.39
2023-02-04T06:42:57.103Z,2.42
2023-02-04T06:43:57.120Z,2.42
2023-02-04T06:44:57.140Z,2.38
2023-02-04T06:45:57.196Z,2.31
2023-02-04T06:46:57.205Z,2.22
2023-02-04T06:47:57.175Z,2.17
2023-02-04T06:48:57.200Z,2.14
2023-02-04T06:49:57.215Z,2.10
2023-02-04T06:50:57.229Z,2.06
2023-02-04T06:51:57.256Z,1.95
2023-02-04T06:52:57.252Z,1.94
2023-02-04T06:53:57.269Z,1.92
2023-02-04T06:54:57.296Z,1.92
2023-02-04T06:55:57.317Z,1.94
2023-02-04T06:56:57.357Z,1.97
2023-02-04T06:57:57.346Z,2.02
2023-02-04T06:58:57.371Z,2.08
2023-02-04T06:59:57.375Z,2.14
2023-02-04T07:00:57.398Z,2.15
2023-02-04T07:01:57.426Z,2.20
2023-02-04T07:02:57.432Z,2.26
2023-02-04T07:03:57.444Z,2.33
2023-02-04T07:04:57.466Z,2.43
2023-02-04T07:05:57.467Z,2.53
2023-02-04T07:06:57.524Z,2.57
2023-02-04T07:07:57.506Z,2.62
2023-02-04T07:08:57.533Z,2.67
2023-02-04T07:09:57.538Z,2.71
2023-02-04T07:10:57.560Z,2.74
2023-02-04T07:11:57.594Z,2.77
2023-02-04T07:12:57.589Z,2.82
2023-02-04T07:13:57.594Z,2.86
2023-02-04T07:14:57.620Z,2.89
2023-02-04T07:15:57.732Z,2.90
2023-02-04T07:16:57.684Z,2.95
2023-02-04T07:17:57.665Z,2.97
2023-02-04T07:18:57.695Z,2.97
2023-02-04T07:19:57.713Z,2.97
2023-02-04T07:20:57.736Z,3.00
2023-02-04T07:21:57.778Z,2.98
2023-02-04T07:22:57.770Z,3.03
2023-02-04T07:23:57.787Z,3.03
2023-02-04T07:24:57.813Z,3.05
2023-02-04T07:25:57.826Z,3.03
2023-02-04T07:26:57.884Z,3.04
2023-02-04T07:27:57.876Z,3.04
2023-02-04T07:28:57.870Z,3.04
2023-02-04T07:29:57.888Z,3.05
2023-02-04T07:30:58.046Z,3.07
2023-02-04T07:31:58.130Z,3.08
2023-02-04T07:32:57.960Z,3.10
2023-02-04T07:33:57.968Z,3.11
2023-02-04T07:34:57.984Z,3.11
2023-02-04T07:35:58.006Z,3.14
2023-02-04T07:36:58.114Z,3.14
2023-02-04T07:37:58.032Z,3.16
2023-02-04T07:38:58.059Z,3.19
2023-02-04T07:39:58.071Z,3.22
2023-02-04T07:40:58.092Z,3.23
2023-02-04T07:41:58.142Z,3.29
2023-02-04T07:42:58.129Z,3.34
2023-02-04T07:43:58.135Z,3.36
2023-02-04T07:44:58.158Z,3.36
2023-02-04T07:45:58.239Z,3.41
2023-02-04T07:46:58.212Z,3.45
2023-02-04T07:47:58.204Z,3.47
2023-02-04T07:48:58.261Z,3.48
2023-02-04T07:49:58.241Z,3.55
2023-02-04T07:50:58.265Z,3.56
2023-02-04T07:51:58.302Z,3.58
2023-02-04T07:52:58.298Z,3.60
2023-02-04T07:53:58.316Z,3.62
2023-02-04T07:54:58.330Z,3.65
2023-02-04T07:55:58.338Z,3.66
2023-02-04T07:56:58.386Z,3.68
2023-02-04T07:57:58.383Z,3.69
2023-02-04T07:58:58.408Z,3.73
2023-02-04T07:59:58.413Z,3.74
2023-02-04T08:00:58.435Z,3.76
2023-02-04T08:01:58.516Z,3.77
2023-02-04T08:02:58.507Z,3.80
2023-02-04T08:03:58.480Z,3.83
2023-02-04T08:04:58.507Z,3.84
2023-02-04T08:05:58.517Z,3.86
2023-02-04T08:06:58.567Z,3.88
2023-02-04T08:07:58.603Z,3.88
2023-02-04T08:08:58.581Z,3.94
2023-02-04T08:09:58.598Z,3.95
2023-02-04T08:10:58.848Z,3.98
2023-02-04T08:11:58.669Z,4.01
2023-02-04T08:12:58.686Z,4.05
2023-02-04T08:13:58.681Z,4.06
2023-02-04T08:14:58.690Z,4.08
2023-02-04T08:15:58.771Z,4.13
2023-02-04T08:16:58.744Z,4.16
2023-02-04T08:17:58.725Z,4.19
2023-02-04T08:18:58.740Z,4.22
2023-02-04T08:19:58.767Z,4.28
2023-02-04T08:20:58.781Z,4.32
2023-02-04T08:21:58.844Z,4.32
2023-02-04T08:22:58.849Z,4.34
2023-02-04T08:23:58.850Z,4.35
2023-02-04T08:24:58.856Z,4.40
2023-02-04T08:25:58.883Z,4.42
2023-02-04T08:26:58.923Z,4.44
2023-02-04T08:27:58.951Z,4.48
2023-02-04T08:28:58.933Z,4.52
2023-02-04T08:29:58.955Z,4.52
2023-02-04T08:30:59.120Z,4.58
2023-02-04T08:31:59.081Z,4.60
2023-02-04T08:32:59.007Z,4.68
2023-02-04T08:33:59.034Z,4.74
2023-02-04T08:34:59.052Z,4.80
2023-02-04T08:35:59.079Z,4.84
2023-02-04T08:36:59.110Z,4.89
2023-02-04T08:37:59.115Z,4.89
2023-02-04T08:38:59.130Z,4.92
2023-02-04T08:39:59.150Z,4.94
2023-02-04T08:40:59.166Z,4.94
2023-02-04T08:41:59.217Z,4.99
2023-02-04T08:42:59.198Z,5.05
2023-02-04T08:43:59.224Z,5.11
2023-02-04T08:45:05.749Z,5.14
2023-02-04T08:45:59.265Z,5.21
2023-02-04T08:46:59.331Z,5.25
2023-02-04T08:47:59.299Z,5.26
2023-02-04T08:48:59.316Z,5.28
2023-02-04T08:49:59.334Z,5.25
2023-02-04T08:50:59.349Z,5.25
2023-02-04T08:51:59.401Z,5.23
2023-02-04T08:52:59.395Z,5.20
2023-02-04T08:53:59.423Z,5.20
2023-02-04T08:54:59.437Z,5.20
2023-02-04T08:55:59.465Z,5.14
2023-02-04T08:56:59.509Z,5.10
2023-02-04T08:57:59.524Z,5.12
2023-02-04T08:58:59.510Z,5.15
2023-02-04T08:59:59.536Z,5.17
2023-02-04T09:00:59.614Z,5.18
2023-02-04T09:01:59.633Z,5.17
2023-02-04T09:02:59.585Z,5.17
2023-02-04T09:03:59.601Z,5.12
2023-02-04T09:04:59.612Z,5.14
2023-02-04T09:05:59.627Z,5.15
2023-02-04T09:06:59.662Z,5.14
2023-02-04T09:07:59.662Z,5.14
2023-02-04T09:08:59.675Z,5.15
2023-02-04T09:09:59.702Z,5.18
2023-02-04T09:10:59.720Z,5.25
2023-02-04T09:11:59.760Z,5.26
2023-02-04T09:12:59.752Z,5.26
2023-02-04T09:13:59.777Z,5.28
2023-02-04T09:14:59.799Z,5.23
2023-02-04T09:15:59.949Z,5.25
2023-02-04T09:16:59.869Z,5.26
2023-02-04T09:17:59.849Z,5.28
2023-02-04T09:18:59.864Z,5.28
2023-02-04T09:19:59.891Z,5.32
2023-02-04T09:20:59.910Z,5.33
2023-02-04T09:21:59.952Z,5.33
2023-02-04T09:22:59.940Z,5.21
2023-02-04T09:23:59.967Z,5.21
2023-02-04T09:24:59.981Z,5.28
2023-02-04T09:26:00.004Z,5.32
2023-02-04T09:27:00.053Z,5.32
2023-02-04T09:28:00.116Z,5.38
2023-02-04T09:29:00.057Z,5.41
2023-02-04T09:30:00.091Z,5.46
2023-02-04T09:31:00.125Z,5.46
2023-02-04T09:32:00.341Z,5.50
2023-02-04T09:33:00.211Z,5.57
2023-02-04T09:34:00.167Z,5.56
2023-02-04T09:35:00.228Z,5.53
2023-02-04T09:36:00.203Z,5.53
2023-02-04T09:37:00.219Z,5.59
2023-02-04T09:38:00.217Z,5.62
2023-02-04T09:39:00.241Z,5.62
2023-02-04T09:40:00.252Z,5.62
2023-02-04T09:41:00.260Z,5.51
2023-02-04T09:42:00.306Z,5.46
2023-02-04T09:43:00.288Z,5.48
2023-02-04T09:44:00.310Z,5.54
2023-02-04T09:45:00.326Z,5.56
2023-02-04T09:46:00.399Z,5.57
2023-02-04T09:47:00.380Z,5.59
2023-02-04T09:48:00.382Z,5.59
2023-02-04T09:49:00.389Z,5.53
2023-02-04T09:50:00.413Z,5.50
2023-02-04T09:51:00.440Z,5.53
2023-02-04T09:52:00.478Z,5.53
2023-02-04T09:53:00.466Z,5.51
2023-02-04T09:54:00.486Z,5.35
2023-02-04T09:55:00.524Z,5.36
2023-02-04T09:56:00.534Z,5.39
2023-02-04T09:57:00.557Z,5.30
2023-02-04T09:58:00.581Z,5.35
2023-02-04T09:59:00.599Z,5.38
2023-02-04T10:00:00.625Z,5.38
2023-02-04T10:01:00.682Z,5.41
2023-02-04T10:02:00.692Z,5.47
2023-02-04T10:03:00.662Z,5.50
2023-02-04T10:04:00.768Z,5.46
2023-02-04T10:05:00.680Z,5.44
2023-02-04T10:06:00.709Z,5.46
2023-02-04T10:07:00.748Z,5.48
2023-02-04T10:08:00.762Z,5.54
2023-02-04T10:09:00.747Z,5.53
2023-02-04T10:10:00.775Z,5.53
2023-02-04T10:11:00.784Z,5.48
2023-02-04T10:12:00.855Z,5.38
2023-02-04T10:13:00.819Z,5.38
2023-02-04T10:14:00.845Z,5.41
2023-02-04T10:15:00.862Z,5.39
2023-02-04T10:16:00.888Z,5.39
2023-02-04T10:17:01.003Z,5.43
2023-02-04T10:18:00.916Z,5.51
2023-02-04T10:19:00.928Z,5.53
2023-02-04T10:20:00.945Z,5.56
2023-02-04T10:21:00.958Z,5.59
2023-02-04T10:22:01.041Z,5.65
2023-02-04T10:23:01.000Z,5.69
2023-02-04T10:24:01.026Z,5.69
2023-02-04T10:25:01.042Z,5.68
2023-02-04T10:26:01.067Z,5.62
2023-02-04T10:27:01.169Z,5.47
2023-02-04T10:28:01.142Z,5.44
2023-02-04T10:29:01.133Z,5.44
2023-02-04T10:30:01.139Z,5.50
2023-02-04T10:31:01.422Z,5.47
2023-02-04T10:32:01.281Z,5.54
2023-02-04T10:33:01.194Z,5.47
2023-02-04T10:34:01.221Z,5.35
2023-02-04T10:35:01.233Z,5.29
2023-02-04T10:36:01.250Z,5.30
2023-02-04T10:37:01.294Z,5.30
2023-02-04T10:38:01.284Z,5.28
2023-02-04T10:39:01.297Z,5.25
2023-02-04T10:40:01.347Z,5.26
2023-02-04T10:41:01.341Z,5.21
2023-02-04T10:42:01.411Z,5.14
2023-02-04T10:43:01.382Z,5.04
2023-02-04T10:44:01.395Z,4.96
2023-02-04T10:45:01.421Z,5.00
2023-02-04T10:46:01.432Z,4.97
2023-02-04T10:47:01.464Z,4.96
2023-02-04T10:48:01.463Z,5.04
2023-02-04T10:49:01.463Z,5.12
2023-02-04T10:50:01.484Z,5.07
2023-02-04T10:51:01.494Z,5.04
2023-02-04T10:52:01.553Z,4.94
2023-02-04T10:53:01.537Z,4.96
2023-02-04T10:54:01.566Z,4.99
2023-02-04T10:55:01.577Z,5.00
2023-02-04T10:56:01.598Z,5.05
2023-02-04T10:57:01.662Z,5.10
2023-02-04T10:58:01.637Z,5.07
2023-02-04T10:59:01.647Z,5.14
2023-02-04T11:00:01.667Z,5.17
2023-02-04T11:01:01.732Z,5.17
2023-02-04T11:02:01.750Z,5.15
2023-02-04T11:03:01.786Z,5.12
2023-02-04T11:04:01.734Z,5.07
2023-02-04T11:05:01.745Z,5.04
2023-02-04T11:06:01.775Z,4.77
2023-02-04T11:07:01.811Z,4.68
2023-02-04T11:08:01.794Z,4.73
2023-02-04T11:09:01.811Z,4.73
2023-02-04T11:10:01.826Z,4.67
2023-02-04T11:11:01.838Z,4.68
2023-02-04T11:12:01.896Z,4.67
2023-02-04T11:13:01.911Z,4.68
2023-02-04T11:14:01.895Z,4.67
2023-02-04T11:15:01.912Z,4.73
2023-02-04T11:16:01.983Z,4.70
2023-02-04T11:17:01.973Z,4.75
2023-02-04T11:18:01.968Z,4.77
2023-02-04T11:19:01.976Z,4.77
2023-02-04T11:20:02.004Z,4.78
2023-02-04T11:21:02.017Z,4.75
2023-02-04T11:22:02.076Z,4.67
2023-02-04T11:23:02.051Z,4.62
2023-02-04T11:24:02.083Z,4.70
2023-02-04T11:25:02.108Z,4.84
2023-02-04T11:26:02.126Z,4.94
2023-02-04T11:27:02.156Z,5.02
2023-02-04T11:28:02.183Z,4.96
2023-02-04T11:29:02.167Z,4.92
2023-02-04T11:30:02.193Z,4.93
2023-02-04T11:31:02.324Z,4.99
2023-02-04T11:32:02.357Z,5.02
2023-02-04T11:33:02.235Z,4.96
2023-02-04T11:34:02.267Z,4.87
2023-02-04T11:35:02.276Z,4.73
2023-02-04T11:36:02.294Z,4.73
2023-02-04T11:37:02.335Z,4.68
2023-02-04T11:38:02.323Z,4.73
2023-02-04T11:39:02.337Z,4.68
2023-02-04T11:40:02.366Z,4.68
2023-02-04T11:41:02.371Z,4.63
2023-02-04T11:42:02.431Z,4.66
2023-02-04T11:43:02.405Z,4.71
2023-02-04T11:44:02.422Z,4.80
2023-02-04T11:45:02.440Z,4.90
2023-02-04T11:46:02.472Z,4.97
2023-02-04T11:47:02.486Z,4.90
2023-02-04T11:48:02.485Z,4.78
2023-02-04T11:49:02.498Z,4.84
2023-02-04T11:50:02.523Z,4.92
2023-02-04T11:51:02.531Z,4.97
2023-02-04T11:52:02.581Z,5.00
2023-02-04T11:53:02.590Z,4.97
2023-02-04T11:54:02.603Z,4.93
2023-02-04T11:55:02.613Z,4.92
2023-02-04T11:56:02.629Z,4.96
2023-02-04T11:57:02.680Z,4.99
2023-02-04T11:58:02.671Z,5.00
2023-02-04T11:59:02.689Z,5.10
2023-02-04T12:00:02.716Z,5.21
2023-02-04T12:01:02.723Z,5.30
2023-02-04T12:02:02.769Z,5.47
2023-02-04T12:03:02.817Z,5.71
2023-02-04T12:04:02.833Z,5.65
2023-02-04T12:05:02.792Z,5.71
2023-02-04T12:06:02.817Z,5.72
2023-02-04T12:07:02.850Z,5.75
2023-02-04T12:08:02.847Z,5.69
2023-02-04T12:09:02.850Z,5.68
2023-02-04T12:10:02.878Z,5.56
2023-02-04T12:11:02.896Z,5.51
2023-02-04T12:12:02.941Z,5.51
2023-02-04T12:13:02.932Z,5.51
2023-02-04T12:14:02.957Z,5.35
2023-02-04T12:15:02.978Z,5.15
2023-02-04T12:16:03.077Z,5.04
2023-02-04T12:17:03.040Z,4.99
2023-02-04T12:18:03.039Z,5.04
2023-02-04T12:19:03.050Z,5.04
2023-02-04T12:20:03.071Z,4.93
2023-02-04T12:21:03.084Z,4.90
2023-02-04T12:22:03.133Z,4.94
2023-02-04T12:23:03.114Z,5.05
2023-02-04T12:24:03.138Z,5.14
2023-02-04T12:25:03.142Z,5.17
2023-02-04T12:26:03.163Z,5.18
2023-02-04T12:27:03.213Z,5.21
2023-02-04T12:28:03.336Z,5.26
2023-02-04T12:29:03.226Z,5.44
2023-02-04T12:30:03.249Z,5.56
2023-02-04T12:31:03.401Z,5.71
2023-02-04T12:32:03.322Z,5.73
2023-02-04T12:33:03.292Z,5.54
2023-02-04T12:34:03.320Z,5.56
2023-02-04T12:35:03.330Z,5.48
2023-02-04T12:36:03.350Z,5.36
2023-02-04T12:37:03.383Z,5.38
2023-02-04T12:38:03.377Z,5.35
2023-02-04T12:39:03.399Z,5.29
2023-02-04T12:40:03.409Z,5.30
2023-02-04T12:41:03.423Z,5.30
2023-02-04T12:42:03.466Z,5.26
2023-02-04T12:43:03.461Z,5.28
2023-02-04T12:44:03.469Z,5.17
2023-02-04T12:45:03.497Z,5.10
2023-02-04T12:46:03.506Z,5.07
2023-02-04T12:47:03.558Z,5.10
2023-02-04T12:48:03.638Z,5.11
2023-02-04T12:49:03.564Z,5.15
2023-02-04T12:50:03.576Z,5.17
2023-02-04T12:51:03.604Z,5.14
2023-02-04T12:52:03.639Z,5.11
2023-02-04T12:53:03.635Z,5.11
2023-02-04T12:54:03.650Z,5.10
2023-02-04T12:55:03.670Z,5.05
2023-02-04T12:56:03.681Z,5.04
2023-02-04T12:57:03.742Z,5.12
2023-02-04T12:58:03.718Z,5.17
2023-02-04T12:59:03.742Z,5.17
2023-02-04T13:00:03.751Z,5.17
2023-02-04T13:01:04.481Z,5.21
2023-02-04T13:02:03.884Z,5.21
2023-02-04T13:03:03.814Z,5.14
2023-02-04T13:04:03.836Z,5.17
2023-02-04T13:05:03.851Z,5.26
2023-02-04T13:06:03.868Z,5.23
2023-02-04T13:07:03.910Z,5.14
2023-02-04T13:08:03.900Z,5.11
2023-02-04T13:09:03.928Z,5.04
2023-02-04T13:10:03.946Z,5.11
2023-02-04T13:11:03.964Z,5.20
2023-02-04T13:12:03.999Z,5.23
2023-02-04T13:13:04.782Z,5.25
2023-02-04T13:14:04.007Z,5.23
2023-02-04T13:15:04.032Z,5.26
2023-02-04T13:16:04.082Z,5.35
2023-02-04T13:17:04.082Z,5.35
2023-02-04T13:18:04.074Z,5.33
2023-02-04T13:19:04.093Z,5.29